Time;durP1;ratioP1;P1;durP2;ratioP2;P2;SDS_P1;SDS_P2;PMS_P1;PMS_P2;Temp;Humidity;BMP_temperature;BMP_pressure;BME280_temperature;BME280_humidity;BME280_pressure;Samples;Min_cycle;Max_cycle;Signal;HPM_P1;HPM_P2
2024/01/11 00:01:46;;;;;;;34.00;20.10;;;;;;;-2.28;69.19;100544.64;109324;1254;57437;-72
2024/01/11 00:04:14;;;;;;;36.20;22.00;;;;;;;-2.32;69.13;100544.38;109300;1254;62805;-75
2024/01/11 00:06:42;;;;;;;33.70;20.30;;;;;;;-2.36;69.29;100540.66;109450;1254;59186;-74
2024/01/11 00:09:10;;;;;;;34.40;22.40;;;;;;;-2.37;69.40;100539.16;109334;1254;63740;-70
2024/01/11 00:11:37;;;;;;;33.90;21.70;;;;;;;-2.38;69.33;100537.27;109330;1254;57283;-72
2024/01/11 00:14:05;;;;;;;33.80;21.50;;;;;;;-2.38;69.47;100530.90;109453;1257;57323;-74
2024/01/11 00:16:33;;;;;;;30.90;20.30;;;;;;;-2.39;69.56;100522.81;109336;1254;62843;-80
2024/01/11 00:19:00;;;;;;;33.60;20.70;;;;;;;-2.40;69.71;100518.20;109387;1254;58324;-77
2024/01/11 00:21:28;;;;;;;33.10;21.20;;;;;;;-2.41;69.76;100511.50;109428;1254;63742;-73
2024/01/11 00:23:56;;;;;;;33.10;20.80;;;;;;;-2.43;69.78;100500.64;109407;1254;57417;-71
2024/01/11 00:26:23;;;;;;;32.90;20.00;;;;;;;-2.45;69.77;100492.44;109422;1254;57382;-70
2024/01/11 00:28:51;;;;;;;35.30;21.60;;;;;;;-2.46;69.89;100490.57;109159;1254;62887;-69
2024/01/11 00:31:18;;;;;;;31.60;20.20;;;;;;;-2.48;69.94;100485.61;109442;1254;57777;-71
2024/01/11 00:33:46;;;;;;;33.30;20.90;;;;;;;-2.48;70.05;100486.14;109420;1254;62436;-73
2024/01/11 00:36:20;;;;;;;30.40;18.20;;;;;;;-2.48;70.11;100482.17;109176;1254;57403;-72
2024/01/11 00:38:48;;;;;;;30.90;17.90;;;;;;;-2.50;70.20;100475.34;109193;1254;57244;-74
2024/01/11 00:41:15;;;;;;;31.10;21.10;;;;;;;-2.53;70.26;100466.59;109425;1254;72028;-80
2024/01/11 00:43:44;;;;;;;31.00;19.60;;;;;;;-2.52;70.37;100461.92;109325;1259;58441;-80
2024/01/11 00:46:11;;;;;;;31.10;20.90;;;;;;;-2.51;70.54;100460.17;109263;1254;62439;-72
2024/01/11 00:48:39;;;;;;;33.90;21.50;;;;;;;-2.51;70.42;100449.83;109322;1254;57389;-75
2024/01/11 00:51:07;;;;;;;30.70;19.40;;;;;;;-2.49;70.42;100446.52;109326;1255;57399;-70
2024/01/11 00:53:34;;;;;;;29.40;19.30;;;;;;;-2.46;70.45;100440.75;109432;1254;64099;-70
2024/01/11 00:56:02;;;;;;;31.60;19.90;;;;;;;-2.43;70.53;100436.36;109351;1254;65727;-70
2024/01/11 00:58:29;;;;;;;33.10;20.30;;;;;;;-2.45;70.51;100434.34;109389;1254;63668;-70
2024/01/11 01:00:57;;;;;;;34.30;20.90;;;;;;;-2.47;70.48;100425.23;109261;1257;58168;-70
2024/01/11 01:03:25;;;;;;;31.90;20.00;;;;;;;-2.46;70.53;100419.02;109253;1256;58210;-70
2024/01/11 01:05:52;;;;;;;30.30;19.10;;;;;;;-2.46;70.60;100411.60;109176;1257;63686;-70
2024/01/11 01:08:20;;;;;;;31.20;19.70;;;;;;;-2.46;70.73;100402.63;109163;1258;58313;-70
2024/01/11 01:10:48;;;;;;;35.10;19.20;;;;;;;-2.46;70.76;100404.36;109166;1256;62505;-71
2024/01/11 01:13:15;;;;;;;29.50;19.80;;;;;;;-2.47;70.88;100393.70;109110;1257;58395;-71
2024/01/11 01:15:43;;;;;;;28.40;19.20;;;;;;;-2.47;70.93;100381.30;109282;1256;58078;-81
2024/01/11 01:18:10;;;;;;;27.90;18.90;;;;;;;-2.48;70.92;100377.86;109162;1258;64977;-71
2024/01/11 01:20:38;;;;;;;30.20;19.80;;;;;;;-2.48;71.11;100371.33;109224;1256;58349;-81
2024/01/11 01:23:06;;;;;;;28.90;18.70;;;;;;;-2.47;71.06;100363.02;109127;1257;63750;-76
2024/01/11 01:25:33;;;;;;;29.60;19.90;;;;;;;-2.48;71.12;100356.48;109364;1258;58104;-72
2024/01/11 01:28:01;;;;;;;29.50;19.90;;;;;;;-2.47;71.23;100346.29;109192;1257;58104;-72
2024/01/11 01:30:28;;;;;;;28.20;19.00;;;;;;;-2.46;71.29;100336.59;109203;1256;64970;-78
2024/01/11 01:32:56;;;;;;;30.00;19.70;;;;;;;-2.45;71.31;100331.40;109165;1257;58173;-77
2024/01/11 01:35:24;;;;;;;29.40;18.90;;;;;;;-2.45;71.36;100326.58;109228;1257;63725;-77
2024/01/11 01:37:52;;;;;;;27.00;18.20;;;;;;;-2.45;71.43;100321.39;109167;1255;58214;-73
2024/01/11 01:40:19;;;;;;;31.30;19.00;;;;;;;-2.42;71.37;100315.80;109222;1257;58249;-77
2024/01/11 01:42:47;;;;;;;26.80;18.10;;;;;;;-2.44;71.52;100313.27;109205;1256;65068;-76
2024/01/11 01:45:15;;;;;;;27.70;18.80;;;;;;;-2.46;71.48;100313.69;109129;1257;58621;-78
2024/01/11 01:47:43;;;;;;;31.00;19.30;;;;;;;-2.46;71.50;100312.30;109223;1257;62470;-77
2024/01/11 01:50:11;;;;;;;26.80;18.80;;;;;;;-2.47;71.54;100308.52;109143;1260;58167;-78
2024/01/11 01:52:39;;;;;;;31.70;18.60;;;;;;;-2.45;71.53;100309.00;109152;1256;58189;-82
2024/01/11 01:55:07;;;;;;;27.80;18.10;;;;;;;-2.45;71.54;100303.48;109153;1256;65346;-72
2024/01/11 01:57:34;;;;;;;28.40;18.90;;;;;;;-2.45;71.53;100292.80;109166;1257;58242;-71
2024/01/11 02:00:02;;;;;;;30.00;19.30;;;;;;;-2.44;71.52;100288.59;109145;1257;63894;-75
2024/01/11 02:02:38;;;;;;;25.60;17.90;;;;;;;-2.41;71.54;100283.88;109168;1257;58282;-71
2024/01/11 02:05:06;;;;;;;26.30;16.90;;;;;;;-2.39;71.52;100282.78;109158;1256;57973;-71
2024/01/11 02:07:34;;;;;;;26.90;19.30;;;;;;;-2.37;71.46;100282.55;109129;1257;65079;-72
2024/01/11 02:10:01;;;;;;;28.50;18.60;;;;;;;-2.36;71.56;100277.36;109092;1258;58223;-69
2024/01/11 02:12:29;;;;;;;30.30;18.90;;;;;;;-2.36;71.60;100278.37;109117;1257;63774;-71
2024/01/11 02:14:57;;;;;;;27.50;18.20;;;;;;;-2.35;71.66;100272.50;109090;1256;59879;-71
2024/01/11 02:17:25;;;;;;;29.30;19.20;;;;;;;-2.38;71.78;100265.69;109118;1256;58051;-79
2024/01/11 02:19:52;;;;;;;27.20;18.50;;;;;;;-2.39;71.82;100259.16;109143;1257;63697;-72
2024/01/11 02:22:27;;;;;;;31.20;18.30;;;;;;;-2.39;71.85;100252.44;109332;1256;58171;-71
2024/01/11 02:24:56;;;;;;;26.30;17.20;;;;;;;-2.38;71.89;100248.28;109315;1257;63792;-71
2024/01/11 02:27:23;;;;;;;30.30;19.40;;;;;;;-2.39;71.88;100248.14;109126;1257;58085;-72
2024/01/11 02:29:51;;;;;;;26.60;17.70;;;;;;;-2.38;71.95;100244.48;109299;1257;58237;-71
2024/01/11 02:32:19;;;;;;;28.90;18.60;;;;;;;-2.36;71.97;100242.69;109127;1256;63639;-71
2024/01/11 02:34:47;;;;;;;28.40;18.30;;;;;;;-2.35;71.93;100239.89;109116;1257;58195;-69
2024/01/11 02:37:14;;;;;;;28.60;18.30;;;;;;;-2.35;71.85;100229.21;109099;1257;63825;-72
2024/01/11 02:39:42;;;;;;;28.80;19.10;;;;;;;-2.36;71.85;100230.61;109167;1256;58182;-73
2024/01/11 02:42:09;;;;;;;27.50;18.20;;;;;;;-2.34;71.90;100226.06;109192;1256;58186;-72
2024/01/11 02:44:37;;;;;;;29.50;18.40;;;;;;;-2.32;71.87;100226.53;109143;1257;64964;-71
2024/01/11 02:47:05;;;;;;;27.20;17.50;;;;;;;-2.32;71.82;100218.95;109190;1257;58354;-71
2024/01/11 02:49:33;;;;;;;26.80;17.50;;;;;;;-2.32;71.77;100211.02;109151;1257;63652;-69
2024/01/11 02:52:00;;;;;;;22.50;14.20;;;;;;;-2.31;71.81;100205.65;109146;1257;58118;-71
2024/01/11 02:54:28;;;;;;;24.10;16.00;;;;;;;-2.31;71.77;100200.13;109159;1257;58483;-69
2024/01/11 02:56:57;;;;;;;26.20;17.70;;;;;;;-2.30;71.73;100198.73;109235;1256;64962;-72
2024/01/11 02:59:25;;;;;;;24.70;17.10;;;;;;;-2.31;71.73;100190.48;109183;1256;58454;-71
2024/01/11 03:01:53;;;;;;;28.40;17.50;;;;;;;-2.32;71.84;100181.70;109105;1257;63874;-71
2024/01/11 03:04:22;;;;;;;27.30;17.60;;;;;;;-2.33;71.95;100175.86;109115;1257;58199;-71
2024/01/11 03:06:50;;;;;;;26.20;17.00;;;;;;;-2.34;71.94;100167.44;109174;1257;58213;-71
2024/01/11 03:09:20;;;;;;;24.80;17.60;;;;;;;-2.35;72.07;100158.52;109241;1256;66775;-70
2024/01/11 03:11:48;;;;;;;23.10;15.90;;;;;;;-2.36;72.08;100149.22;109129;1257;60050;-73
2024/01/11 03:14:17;;;;;;;24.80;16.60;;;;;;;-2.37;72.11;100143.08;109108;1257;65114;-72
2024/01/11 03:16:46;;;;;;;21.50;15.60;;;;;;;-2.39;72.13;100137.95;109084;1257;58164;-71
2024/01/11 03:19:14;;;;;;;25.30;16.30;;;;;;;-2.40;72.21;100134.02;109138;1257;58197;-70
2024/01/11 03:21:46;;;;;;;23.80;16.50;;;;;;;-2.41;72.18;100134.58;109126;1257;64908;-73
2024/01/11 03:24:13;;;;;;;23.90;16.70;;;;;;;-2.42;72.20;100132.67;109148;1257;58195;-71
2024/01/11 03:26:41;;;;;;;24.60;16.20;;;;;;;-2.44;72.21;100128.77;109168;1257;62516;-70
2024/01/11 03:29:09;;;;;;;26.00;17.10;;;;;;;-2.44;72.25;100120.16;109124;1256;58656;-72
2024/01/11 03:31:41;;;;;;;22.40;15.40;;;;;;;-2.44;72.27;100115.86;109100;1257;58035;-72
2024/01/11 03:34:09;;;;;;;23.50;16.50;;;;;;;-2.46;72.18;100105.05;109207;1257;63679;-74
2024/01/11 03:36:36;;;;;;;21.70;15.20;;;;;;;-2.47;72.21;100110.77;109115;1257;58241;-71
2024/01/11 03:39:05;;;;;;;21.80;14.10;;;;;;;-2.47;72.25;100109.91;109114;1257;63744;-71
2024/01/11 03:41:32;;;;;;;22.10;14.70;;;;;;;-2.46;72.21;100104.02;109062;1257;58214;-73
2024/01/11 03:44:00;;;;;;;28.80;16.90;;;;;;;-2.45;72.12;100104.52;109138;1257;58191;-75
2024/01/11 03:46:29;;;;;;;25.00;16.80;;;;;;;-2.44;72.16;100106.36;109148;1257;63723;-74
2024/01/11 03:48:56;;;;;;;25.30;16.00;;;;;;;-2.42;72.12;100101.31;109047;1257;58268;-73
2024/01/11 03:51:25;;;;;;;22.80;14.50;;;;;;;-2.41;72.10;100095.95;109108;1257;63755;-73
2024/01/11 03:53:53;;;;;;;22.20;14.90;;;;;;;-2.39;71.89;100086.55;109141;1257;58124;-73
2024/01/11 03:56:21;;;;;;;21.30;14.50;;;;;;;-2.39;71.69;100077.42;109061;1257;58067;-70
2024/01/11 03:58:50;;;;;;;20.80;14.30;;;;;;;-2.38;71.68;100069.64;109115;1257;64911;-70
2024/01/11 04:01:20;;;;;;;23.20;15.50;;;;;;;-2.36;71.66;100061.11;109148;1257;58190;-72
2024/01/11 04:03:51;;;;;;;23.10;15.60;;;;;;;-2.35;71.63;100052.28;109100;1257;63735;-70
2024/01/11 04:06:24;;;;;;;21.40;14.70;;;;;;;-2.40;71.72;100050.89;109101;1260;58522;-72
2024/01/11 04:08:54;;;;;;;19.30;14.10;;;;;;;-2.40;71.72;100045.23;109154;1257;58048;-70
2024/01/11 04:11:28;;;;;;;22.00;14.00;;;;;;;-2.40;71.75;100035.91;109082;1257;63615;-70
2024/01/11 04:13:58;;;;;;;17.40;11.10;;;;;;;-2.39;71.72;100020.70;109143;1257;58196;-71
2024/01/11 04:16:28;;;;;;;21.80;13.90;;;;;;;-2.35;71.59;100017.81;109145;1257;62466;-71
2024/01/11 04:19:03;;;;;;;22.20;14.80;;;;;;;-2.37;71.55;100017.17;109007;1257;58273;-72
2024/01/11 04:21:40;;;;;;;21.10;14.50;;;;;;;-2.39;71.50;100018.10;109133;1257;58103;-72
2024/01/11 04:24:12;;;;;;;18.70;13.10;;;;;;;-2.37;71.58;100012.19;109116;1257;75929;-72
2024/01/11 04:26:42;;;;;;;19.10;13.60;;;;;;;-2.36;71.51;100006.80;109120;1257;58092;-72
2024/01/11 04:29:13;;;;;;;21.10;13.60;;;;;;;-2.37;71.49;99993.38;109003;1257;62505;-72
2024/01/11 04:31:44;;;;;;;21.10;14.10;;;;;;;-2.38;71.45;99987.04;109051;1257;58146;-73
2024/01/11 04:34:13;;;;;;;19.60;14.20;;;;;;;-2.39;71.33;99985.35;109122;1257;58055;-72
2024/01/11 04:36:45;;;;;;;22.00;14.20;;;;;;;-2.41;71.40;99979.20;109085;1257;63716;-71
2024/01/11 04:48:21;;;;;;;22.60;14.10;;;;;;;-2.42;71.41;99946.83;109097;1257;58113;-72
2024/01/11 04:50:52;;;;;;;20.30;13.70;;;;;;;-2.41;71.48;99941.11;109121;1257;58363;-71
2024/01/11 04:53:21;;;;;;;21.10;13.90;;;;;;;-2.39;71.46;99937.23;109129;1257;63622;-72
2024/01/11 04:55:52;;;;;;;23.00;14.30;;;;;;;-2.38;71.40;99934.65;109138;1257;59078;-73
2024/01/11 05:05:59;;;;;;;22.50;14.40;;;;;;;-2.38;71.30;99916.27;102426;1291;600358;-71
2024/01/11 05:08:27;;;;;;;29.90;15.50;;;;;;;-2.39;71.36;99911.73;104592;1274;59564;-71
2024/01/11 05:10:55;;;;;;;37.50;18.10;;;;;;;-2.39;71.33;99909.33;104740;1272;59311;-72
2024/01/11 05:13:23;;;;;;;32.70;18.00;;;;;;;-2.38;71.33;99902.39;104672;1266;62115;-71
2024/01/11 05:23:30;;;;;;;20.80;13.80;;;;;;;-2.28;71.37;99892.73;102394;1292;600931;-71
2024/01/11 05:25:58;;;;;;;22.20;13.50;;;;;;;-2.27;71.33;99887.18;104562;1269;59375;-71
2024/01/11 05:28:26;;;;;;;21.60;14.10;;;;;;;-2.24;71.31;99887.05;104631;1272;59356;-71
2024/01/11 05:30:55;;;;;;;20.20;13.70;;;;;;;-2.22;71.31;99884.77;104488;1273;65802;-71
2024/01/11 05:33:23;;;;;;;22.00;14.60;;;;;;;-2.20;71.22;99881.77;104601;1270;59210;-70
2024/01/11 05:35:53;;;;;;;21.90;13.40;;;;;;;-2.18;71.16;99879.47;104558;1272;62499;-71
2024/01/11 05:38:21;;;;;;;21.50;13.60;;;;;;;-2.17;71.20;99877.17;104679;1267;217323;-71
2024/01/11 05:40:49;;;;;;;22.40;13.40;;;;;;;-2.17;71.08;99879.77;104788;1266;59309;-71
2024/01/11 05:43:18;;;;;;;24.90;15.60;;;;;;;-2.16;71.09;99880.60;104792;1265;63385;-71
2024/01/11 05:45:46;;;;;;;20.60;13.60;;;;;;;-2.15;71.05;99880.57;104899;1270;59258;-71
2024/01/11 05:48:21;;;;;;;29.90;18.60;;;;;;;-2.13;71.07;99882.20;105224;1264;63905;-72
2024/01/11 05:50:51;;;;;;;29.80;18.30;;;;;;;-2.13;71.04;99879.27;104839;1266;59760;-70
2024/01/11 05:53:20;;;;;;;25.20;15.60;;;;;;;-2.11;71.08;99879.89;104510;1266;59619;-71
2024/01/11 05:55:48;;;;;;;19.90;13.50;;;;;;;-2.09;71.12;99880.50;104715;1265;64213;-70
2024/01/11 05:58:19;;;;;;;23.30;13.60;;;;;;;-2.06;71.04;99881.95;108582;1266;59101;-70
2024/01/11 06:00:47;;;;;;;19.10;12.50;;;;;;;-2.04;70.98;99875.85;108585;1266;63835;-70
2024/01/11 06:03:15;;;;;;;19.60;12.50;;;;;;;-2.00;70.99;99868.65;108610;1266;57732;-71
2024/01/11 06:05:43;;;;;;;19.70;12.70;;;;;;;-1.97;70.97;99865.23;108604;1266;57243;-70
2024/01/11 06:08:11;;;;;;;26.10;16.10;;;;;;;-1.94;70.87;99853.77;108588;1266;62895;-70
2024/01/11 06:10:39;;;;;;;27.30;16.30;;;;;;;-1.92;70.87;99852.81;108475;1266;58351;-71
2024/01/11 06:13:06;;;;;;;24.20;14.40;;;;;;;-1.88;70.78;99849.73;108469;1266;62560;-71
2024/01/11 06:15:34;;;;;;;20.50;12.00;;;;;;;-1.88;70.63;99845.41;108576;1267;57330;-71
2024/01/11 06:18:02;;;;;;;18.10;11.90;;;;;;;-1.89;70.54;99842.34;108680;1265;57334;-71
2024/01/11 06:20:30;;;;;;;18.30;12.20;;;;;;;-1.87;70.53;99845.20;109220;1256;62863;-71
2024/01/11 06:22:58;;;;;;;20.60;13.00;;;;;;;-1.84;70.56;99845.09;109203;1255;57431;-70
2024/01/11 06:25:26;;;;;;;20.50;12.90;;;;;;;-1.80;70.62;99840.45;109189;1255;65786;-69
2024/01/11 06:27:54;;;;;;;20.00;12.30;;;;;;;-1.75;70.48;99837.16;109181;1255;57385;-71
2024/01/11 06:30:22;;;;;;;27.60;16.80;;;;;;;-1.74;70.35;99824.67;109255;1256;57544;-72
2024/01/11 06:32:51;;;;;;;27.90;17.30;;;;;;;-1.72;70.34;99823.59;109121;1255;72182;-71
2024/01/11 06:35:21;;;;;;;25.20;13.80;;;;;;;-1.70;70.33;99812.15;109027;1255;59179;-70
2024/01/11 06:37:49;;;;;;;21.90;13.50;;;;;;;-1.67;70.36;99802.16;109036;1256;62686;-71
2024/01/11 06:40:19;;;;;;;20.20;12.50;;;;;;;-1.62;70.33;99803.02;109039;1256;57384;-72
2024/01/11 06:42:47;;;;;;;16.80;9.90;;;;;;;-1.59;70.35;99797.19;109052;1255;57452;-71
2024/01/11 06:45:14;;;;;;;20.20;13.80;;;;;;;-1.56;70.32;99795.01;109071;1256;64169;-71
2024/01/11 06:52:32;;;;;;;19.50;12.10;;;;;;;-1.49;70.11;99795.59;109198;1256;63929;-71
2024/01/11 06:55:00;;;;;;;20.50;12.60;;;;;;;-1.46;70.13;99792.52;108931;1255;57427;-70
2024/01/11 06:57:28;;;;;;;15.80;11.70;;;;;;;-1.43;70.04;99793.80;109000;1255;57473;-71
2024/01/11 06:59:56;;;;;;;17.60;11.20;;;;;;;-1.39;70.06;99784.48;109036;1256;64357;-72
2024/01/11 07:02:24;;;;;;;16.10;11.10;;;;;;;-1.39;70.09;99788.10;108989;1256;58210;-72
2024/01/11 07:04:51;;;;;;;16.10;10.60;;;;;;;-1.36;70.19;99783.85;108929;1256;74842;-75
2024/01/11 07:07:19;;;;;;;18.20;11.10;;;;;;;-1.34;70.14;99780.66;108936;1256;57441;-74
2024/01/11 07:09:47;;;;;;;16.70;11.40;;;;;;;-1.32;70.10;99780.08;109038;1256;57350;-76
2024/01/11 07:12:14;;;;;;;17.30;11.50;;;;;;;-1.32;70.03;99769.51;108978;1256;65986;-75
2024/01/11 07:14:42;;;;;;;19.20;12.50;;;;;;;-1.31;70.05;99761.70;108972;1256;58786;-72
2024/01/11 07:17:10;;;;;;;19.00;12.10;;;;;;;-1.30;70.05;99756.48;108903;1256;65561;-79
2024/01/11 07:19:38;;;;;;;17.60;11.60;;;;;;;-1.29;70.01;99754.89;108845;1256;57465;-79
2024/01/11 07:22:05;;;;;;;17.30;10.70;;;;;;;-1.28;70.00;99756.05;108977;1256;57426;-76
2024/01/11 07:24:37;;;;;;;16.60;11.10;;;;;;;-1.27;69.99;99754.09;108865;1261;64239;-74
2024/01/11 07:27:08;;;;;;;17.80;11.50;;;;;;;-1.20;69.91;99762.13;108977;1256;57460;-76
2024/01/11 07:29:36;;;;;;;19.10;11.90;;;;;;;-1.18;69.81;99752.69;108952;1256;63749;-76
2024/01/11 07:32:04;;;;;;;29.00;18.00;;;;;;;-1.16;69.84;99751.77;109010;1256;57422;-75
2024/01/11 07:34:34;;;;;;;18.80;12.80;;;;;;;-1.13;69.84;99744.94;108970;1256;57489;-76
2024/01/11 07:37:03;;;;;;;19.30;12.80;;;;;;;-1.13;69.84;99742.67;109035;1256;65961;-71
2024/01/11 07:39:31;;;;;;;18.20;11.90;;;;;;;-1.14;69.88;99738.23;108984;1256;57549;-71
2024/01/11 07:41:59;;;;;;;17.20;11.60;;;;;;;-1.13;69.99;99738.01;109018;1256;63687;-78
2024/01/11 07:44:26;;;;;;;19.40;13.50;;;;;;;-1.10;70.04;99739.60;108946;1256;57414;-74
2024/01/11 07:46:54;;;;;;;21.40;13.20;;;;;;;-1.06;70.10;99740.49;108967;1256;57298;-81
2024/01/11 07:49:26;;;;;;;16.90;11.40;;;;;;;-1.03;70.10;99737.60;109124;1256;64332;-83
2024/01/11 07:51:53;;;;;;;18.90;12.30;;;;;;;-0.99;70.24;99728.05;109203;1257;67686;-79
2024/01/11 07:54:21;;;;;;;17.70;11.80;;;;;;;-0.96;70.25;99728.14;109182;1256;62525;-73
2024/01/11 07:56:48;;;;;;;22.80;14.20;;;;;;;-0.96;70.40;99724.67;109123;1256;57338;-74
2024/01/11 07:59:17;;;;;;;19.30;10.90;;;;;;;-0.98;70.60;99723.17;109161;1256;57314;-75
2024/01/11 08:01:45;;;;;;;18.80;11.60;;;;;;;-0.98;70.76;99713.15;109128;1256;63053;-73
2024/01/11 08:04:12;;;;;;;19.10;12.70;;;;;;;-0.97;70.90;99697.92;109141;1256;60232;-72
2024/01/11 08:06:40;;;;;;;22.00;14.10;;;;;;;-0.95;71.13;99685.05;109090;1256;66591;-77
2024/01/11 08:09:10;;;;;;;22.90;15.10;;;;;;;-0.93;71.23;99681.83;109128;1256;57328;-75
2024/01/11 08:11:38;;;;;;;23.20;15.90;;;;;;;-0.89;71.33;99677.35;109025;1257;57457;-78
2024/01/11 08:14:10;;;;;;;22.30;14.10;;;;;;;-0.85;71.45;99679.08;109089;1256;66452;-75
2024/01/11 08:16:37;;;;;;;21.10;14.60;;;;;;;-0.80;71.53;99680.24;109139;1256;67993;-78
2024/01/11 08:19:05;;;;;;;21.30;13.60;;;;;;;-0.74;71.58;99675.31;109194;1256;63774;-70
2024/01/11 08:26:07;;;;;;;22.20;15.80;;;;;;;-0.55;71.82;99685.67;109214;1257;57476;-73
2024/01/11 08:28:35;;;;;;;20.30;14.10;;;;;;;-0.43;71.79;99685.67;109226;1260;74048;-71
2024/01/11 08:31:06;;;;;;;20.50;13.80;;;;;;;-0.34;71.83;99681.27;109238;1254;58164;-70
2024/01/11 08:33:37;;;;;;;17.70;11.90;;;;;;;-0.24;71.79;99685.13;109207;1256;63745;-71
2024/01/11 08:36:06;;;;;;;20.60;13.70;;;;;;;-0.17;71.52;99685.70;109216;1255;57369;-71
2024/01/11 08:38:41;;;;;;;21.50;13.90;;;;;;;-0.12;71.40;99683.88;109258;1257;57449;-70
2024/01/11 08:41:14;;;;;;;19.30;13.70;;;;;;;-0.06;71.32;99683.27;109221;1256;62885;-69
2024/01/11 08:48:25;;;;;;;18.80;12.60;;;;;;;-0.09;70.40;99675.97;109453;1255;63680;-71
2024/01/11 08:50:53;;;;;;;17.00;11.20;;;;;;;-0.10;70.27;99669.45;109178;1255;57365;-69
2024/01/11 08:53:21;;;;;;;17.50;12.00;;;;;;;-0.09;70.10;99662.80;109231;1255;57429;-68
2024/01/11 08:55:49;;;;;;;19.80;12.70;;;;;;;-0.08;69.88;99658.45;109133;1255;75728;-68
2024/01/11 08:58:16;;;;;;;18.10;12.70;;;;;;;-0.09;69.71;99656.60;109233;1257;58355;-68
2024/01/11 09:00:44;;;;;;;22.40;13.20;;;;;;;-0.15;69.58;99653.25;109186;1255;63817;-69
2024/01/11 09:03:13;;;;;;;19.80;13.10;;;;;;;-0.17;69.39;99656.80;109152;1256;57483;-68
2024/01/11 09:05:41;;;;;;;20.20;13.30;;;;;;;-0.19;69.18;99652.06;109188;1255;57409;-70
2024/01/11 09:08:09;;;;;;;22.80;14.40;;;;;;;-0.19;69.10;99651.02;109182;1255;64288;-74
2024/01/11 09:10:37;;;;;;;21.30;12.60;;;;;;;-0.19;68.98;99649.78;109088;1256;58134;-75
2024/01/11 09:13:05;;;;;;;19.90;13.20;;;;;;;-0.18;68.93;99644.59;109147;1255;62490;-76
2024/01/11 09:15:33;;;;;;;23.00;14.30;;;;;;;-0.19;68.69;99641.65;109130;1257;57369;-77
2024/01/11 09:18:01;;;;;;;22.50;14.50;;;;;;;-0.22;68.49;99639.71;109182;1262;57240;-76
2024/01/11 09:20:28;;;;;;;22.70;15.30;;;;;;;-0.23;68.47;99649.10;109163;1255;62849;-77
2024/01/11 09:22:56;;;;;;;24.50;15.70;;;;;;;-0.21;68.47;99648.86;109225;1256;60543;-77
2024/01/11 09:25:24;;;;;;;21.00;12.70;;;;;;;-0.17;68.40;99651.61;109154;1256;65640;-76
2024/01/11 09:27:51;;;;;;;23.80;14.50;;;;;;;-0.16;68.28;99651.89;109256;1255;57380;-77
2024/01/11 09:30:19;;;;;;;21.60;14.00;;;;;;;-0.15;68.05;99648.25;109158;1256;57471;-75
2024/01/11 09:32:48;;;;;;;22.10;12.70;;;;;;;-0.20;67.84;99644.97;109195;1257;64245;-75
2024/01/11 09:35:16;;;;;;;22.30;13.80;;;;;;;-0.25;67.53;99641.24;109207;1255;57343;-72
2024/01/11 09:37:46;;;;;;;22.40;14.20;;;;;;;-0.32;67.41;99637.91;109120;1255;64811;-76
2024/01/11 09:40:14;;;;;;;21.50;13.40;;;;;;;-0.36;67.38;99636.04;109123;1261;58135;-75
2024/01/11 09:42:42;;;;;;;27.20;16.60;;;;;;;-0.39;67.35;99638.10;109163;1257;58073;-74
2024/01/11 09:45:13;;;;;;;23.50;15.10;;;;;;;-0.42;67.31;99630.95;109213;1257;63653;-75
2024/01/11 09:47:41;;;;;;;23.90;15.10;;;;;;;-0.45;67.34;99630.06;109117;1255;58179;-76
2024/01/11 09:50:10;;;;;;;25.40;14.90;;;;;;;-0.48;67.24;99627.47;109217;1256;63816;-74
2024/01/11 09:52:38;;;;;;;25.80;16.00;;;;;;;-0.55;67.22;99614.64;109152;1257;58118;-74
2024/01/11 09:55:06;;;;;;;25.40;15.90;;;;;;;-0.55;67.32;99612.07;109185;1255;58215;-75
2024/01/11 09:57:33;;;;;;;26.40;16.40;;;;;;;-0.55;67.45;99608.77;109158;1256;67198;-76
2024/01/11 10:00:07;;;;;;;26.00;16.20;;;;;;;-0.55;67.43;99601.15;109076;1255;58218;-75
2024/01/11 10:02:35;;;;;;;23.80;15.60;;;;;;;-0.49;67.48;99599.14;109034;1257;62962;-76
2024/01/11 10:05:04;;;;;;;23.60;14.60;;;;;;;-0.41;67.36;99594.60;109150;1257;58477;-76
2024/01/11 10:07:32;;;;;;;24.70;15.70;;;;;;;-0.37;67.30;99594.41;109162;1257;58270;-76
2024/01/11 10:10:00;;;;;;;23.40;14.60;;;;;;;-0.33;67.17;99587.66;109175;1256;74805;-74
2024/01/11 10:12:30;;;;;;;25.50;15.10;;;;;;;-0.38;67.14;99576.98;109159;1257;69121;-77
2024/01/11 10:15:05;;;;;;;24.50;15.80;;;;;;;-0.45;67.06;99571.10;109124;1255;64437;-75
2024/01/11 10:17:32;;;;;;;27.20;16.50;;;;;;;-0.51;67.03;99568.62;109040;1257;64187;-74
2024/01/11 10:20:02;;;;;;;26.30;15.50;;;;;;;-0.55;67.00;99566.21;109107;1255;58075;-75
2024/01/11 10:22:30;;;;;;;24.50;15.90;;;;;;;-0.55;67.01;99565.00;109128;1256;66359;-74
2024/01/11 10:25:15;;;;;;;28.00;16.20;;;;;;;-0.56;66.99;99548.80;109100;1257;58218;-74
2024/01/11 10:27:44;;;;;;;26.20;16.20;;;;;;;-0.57;67.02;99548.19;109140;1257;63742;-74
2024/01/11 10:30:13;;;;;;;27.70;16.60;;;;;;;-0.57;67.01;99541.94;109063;1257;58212;-73
2024/01/11 10:32:41;;;;;;;25.60;15.80;;;;;;;-0.54;67.11;99540.25;109064;1257;60961;-75
2024/01/11 10:35:09;;;;;;;25.70;17.20;;;;;;;-0.50;67.12;99533.48;109051;1257;66553;-74
2024/01/11 10:37:38;;;;;;;26.90;16.80;;;;;;;-0.47;66.99;99527.98;109024;1256;58166;-74
2024/01/11 10:40:10;;;;;;;27.30;16.30;;;;;;;-0.44;66.94;99521.58;109091;1256;74126;-75
2024/01/11 10:42:43;;;;;;;27.00;16.30;;;;;;;-0.41;66.83;99520.27;109096;1257;58200;-75
2024/01/11 10:45:18;;;;;;;25.20;16.20;;;;;;;-0.41;66.61;99513.49;109026;1256;58155;-76
2024/01/11 10:47:56;;;;;;;27.60;17.00;;;;;;;-0.42;66.54;99509.36;109026;1257;66373;-75
2024/01/11 10:50:30;;;;;;;26.60;16.10;;;;;;;-0.43;66.25;99506.52;109017;1257;60648;-75
2024/01/11 10:57:32;;;;;;;25.70;15.70;;;;;;;-0.36;65.99;99493.69;109045;1257;62003;-76
2024/01/11 11:00:02;;;;;;;28.20;16.90;;;;;;;-0.35;65.79;99490.04;109051;1257;60983;-75
2024/01/11 11:02:31;;;;;;;27.10;16.90;;;;;;;-0.38;65.70;99485.49;108993;1257;64905;-74
2024/01/11 11:04:59;;;;;;;26.00;17.10;;;;;;;-0.35;65.73;99481.55;109069;1257;58577;-74
2024/01/11 11:07:27;;;;;;;26.30;17.10;;;;;;;-0.32;65.60;99479.16;108999;1257;62522;-74
2024/01/11 11:09:55;;;;;;;29.80;17.10;;;;;;;-0.31;65.55;99473.02;108990;1257;58081;-75
2024/01/11 11:12:23;;;;;;;25.30;16.40;;;;;;;-0.30;65.30;99471.95;109022;1257;58051;-75
2024/01/11 11:14:52;;;;;;;28.40;16.20;;;;;;;-0.25;65.31;99472.23;109027;1257;64089;-75
2024/01/11 11:17:20;;;;;;;27.40;17.60;;;;;;;-0.21;65.17;99462.70;108995;1257;66665;-74
2024/01/11 11:19:50;;;;;;;27.70;18.40;;;;;;;-0.21;65.00;99457.16;109042;1257;65064;-75
2024/01/11 11:22:19;;;;;;;27.40;16.50;;;;;;;-0.23;64.66;99453.94;109057;1257;58174;-75
2024/01/11 11:24:47;;;;;;;26.50;16.90;;;;;;;-0.28;64.83;99450.94;109059;1257;58574;-75
2024/01/11 11:27:16;;;;;;;28.30;17.70;;;;;;;-0.28;64.93;99447.33;109125;1257;65444;-75
2024/01/11 11:29:48;;;;;;;27.30;16.80;;;;;;;-0.26;64.80;99442.38;109104;1257;60298;-75
2024/01/11 11:32:17;;;;;;;27.00;17.80;;;;;;;-0.24;64.74;99435.52;109062;1257;62497;-74
2024/01/11 11:34:45;;;;;;;27.10;17.80;;;;;;;-0.22;64.69;99441.11;109046;1257;58036;-73
2024/01/11 11:37:19;;;;;;;27.70;17.90;;;;;;;-0.21;64.59;99443.11;109146;1260;58071;-73
2024/01/11 11:39:47;;;;;;;28.30;17.30;;;;;;;-0.20;64.51;99445.00;109037;1257;65983;-74
2024/01/11 11:42:15;;;;;;;30.00;18.40;;;;;;;-0.19;64.49;99441.29;109111;1257;59390;-74
2024/01/11 11:44:52;;;;;;;27.00;17.00;;;;;;;-0.17;64.36;99435.83;109032;1257;66001;-73
2024/01/11 11:47:24;;;;;;;27.50;17.90;;;;;;;-0.16;64.32;99431.66;109033;1257;64323;-76
2024/01/11 11:50:09;;;;;;;30.30;17.40;;;;;;;-0.14;64.20;99426.15;109118;1257;58419;-71
2024/01/11 11:52:39;;;;;;;29.30;17.80;;;;;;;-0.11;64.23;99422.05;109119;1257;67246;-73
2024/01/11 11:55:07;;;;;;;31.60;18.90;;;;;;;-0.07;64.20;99421.16;109135;1257;59217;-73
2024/01/11 11:57:36;;;;;;;30.10;17.70;;;;;;;-0.05;64.07;99413.95;109079;1257;66193;-74